sensor_id;sensor_type;location;lat;lon;timestamp;temperature;humidity
18225;DHT22;9237;48.590;8.854;2023-04-15T00:02:13;2.00;99.90
18225;DHT22;9237;48.590;8.854;2023-04-15T00:04:41;1.80;99.90
18225;DHT22;9237;48.590;8.854;2023-04-15T00:07:08;1.70;99.90
18225;DHT22;9237;48.590;8.854;2023-04-15T00:09:35;1.60;99.90
18225;DHT22;9237;48.590;8.854;2023-04-15T00:12:02;1.60;99.90
18225;DHT22;9237;48.590;8.854;2023-04-15T00:14:29;1.70;99.90
18225;DHT22;9237;48.590;8.854;2023-04-15T00:16:56;1.70;99.90
18225;DHT22;9237;48.590;8.854;2023-04-15T00:19:23;1.60;99.90
18225;DHT22;9237;48.590;8.854;2023-04-15T00:21:51;1.60;99.90
18225;DHT22;9237;48.590;8.854;2023-04-15T00:24:18;1.40;99.90
18225;DHT22;9237;48.590;8.854;2023-04-15T00:26:45;1.40;99.90
18225;DHT22;9237;48.590;8.854;2023-04-15T00:29:12;1.30;99.90
18225;DHT22;9237;48.590;8.854;2023-04-15T00:31:39;1.20;99.90
18225;DHT22;9237;48.590;8.854;2023-04-15T00:34:06;1.20;99.90
18225;DHT22;9237;48.590;8.854;2023-04-15T00:36:33;1.20;99.90
18225;DHT22;9237;48.590;8.854;2023-04-15T00:39:02;1.20;99.90
18225;DHT22;9237;48.590;8.854;2023-04-15T00:41:29;1.20;99.90
18225;DHT22;9237;48.590;8.854;2023-04-15T00:43:58;1.10;99.90
18225;DHT22;9237;48.590;8.854;2023-04-15T00:46:27;1.10;99.90
18225;DHT22;9237;48.590;8.854;2023-04-15T00:48:55;1.10;99.90
18225;DHT22;9237;48.590;8.854;2023-04-15T00:51:22;1.10;99.90
18225;DHT22;9237;48.590;8.854;2023-04-15T00:53:50;1.20;99.90
18225;DHT22;9237;48.590;8.854;2023-04-15T00:56:19;1.20;99.90
18225;DHT22;9237;48.590;8.854;2023-04-15T00:58:49;1.10;99.90
18225;DHT22;9237;48.590;8.854;2023-04-15T01:01:18;1.00;99.90
18225;DHT22;9237;48.590;8.854;2023-04-15T01:03:46;1.00;99.90
18225;DHT22;9237;48.590;8.854;2023-04-15T01:06:14;0.90;99.90
18225;DHT22;9237;48.590;8.854;2023-04-15T01:08:42;0.90;99.90
18225;DHT22;9237;48.590;8.854;2023-04-15T01:11:09;1.00;99.90
18225;DHT22;9237;48.590;8.854;2023-04-15T01:13:39;1.10;99.90
18225;DHT22;9237;48.590;8.854;2023-04-15T01:16:06;1.20;99.90
18225;DHT22;9237;48.590;8.854;2023-04-15T01:18:34;1.30;99.90
18225;DHT22;9237;48.590;8.854;2023-04-15T01:21:02;1.30;99.90
18225;DHT22;9237;48.590;8.854;2023-04-15T01:23:30;1.20;99.90
18225;DHT22;9237;48.590;8.854;2023-04-15T01:25:59;1.00;99.90
18225;DHT22;9237;48.590;8.854;2023-04-15T01:28:27;0.90;99.90
18225;DHT22;9237;48.590;8.854;2023-04-15T01:31:08;0.70;99.90
18225;DHT22;9237;48.590;8.854;2023-04-15T01:33:35;0.60;99.90
18225;DHT22;9237;48.590;8.854;2023-04-15T01:36:02;0.50;99.90
18225;DHT22;9237;48.590;8.854;2023-04-15T01:38:31;0.50;99.90
18225;DHT22;9237;48.590;8.854;2023-04-15T01:41:00;0.40;99.90
18225;DHT22;9237;48.590;8.854;2023-04-15T01:43:27;0.40;99.90
18225;DHT22;9237;48.590;8.854;2023-04-15T01:45:54;0.50;99.90
18225;DHT22;9237;48.590;8.854;2023-04-15T01:48:21;0.50;99.90
18225;DHT22;9237;48.590;8.854;2023-04-15T01:50:49;0.50;99.90
18225;DHT22;9237;48.590;8.854;2023-04-15T01:53:16;0.40;99.90
18225;DHT22;9237;48.590;8.854;2023-04-15T01:55:43;0.40;99.90
18225;DHT22;9237;48.590;8.854;2023-04-15T01:58:12;0.50;99.90
18225;DHT22;9237;48.590;8.854;2023-04-15T02:00:39;0.50;99.90
18225;DHT22;9237;48.590;8.854;2023-04-15T02:03:07;0.60;99.90
18225;DHT22;9237;48.590;8.854;2023-04-15T02:05:34;0.50;99.90
18225;DHT22;9237;48.590;8.854;2023-04-15T02:08:01;0.50;99.90
18225;DHT22;9237;48.590;8.854;2023-04-15T02:10:28;0.50;99.90
18225;DHT22;9237;48.590;8.854;2023-04-15T02:12:55;0.50;99.90
18225;DHT22;9237;48.590;8.854;2023-04-15T02:15:24;0.50;99.90
18225;DHT22;9237;48.590;8.854;2023-04-15T02:17:51;0.60;99.90
18225;DHT22;9237;48.590;8.854;2023-04-15T02:20:19;0.60;99.90
18225;DHT22;9237;48.590;8.854;2023-04-15T02:22:47;0.60;99.90
18225;DHT22;9237;48.590;8.854;2023-04-15T02:25:14;0.60;99.90
18225;DHT22;9237;48.590;8.854;2023-04-15T02:27:41;0.60;99.90
18225;DHT22;9237;48.590;8.854;2023-04-15T02:30:08;0.70;99.90
18225;DHT22;9237;48.590;8.854;2023-04-15T02:32:37;1.00;99.90
18225;DHT22;9237;48.590;8.854;2023-04-15T02:35:05;0.80;99.90
18225;DHT22;9237;48.590;8.854;2023-04-15T02:37:34;0.80;99.90
18225;DHT22;9237;48.590;8.854;2023-04-15T02:40:06;0.70;99.90
18225;DHT22;9237;48.590;8.854;2023-04-15T02:42:33;0.70;99.90
18225;DHT22;9237;48.590;8.854;2023-04-15T02:45:00;0.60;99.90
18225;DHT22;9237;48.590;8.854;2023-04-15T02:47:27;0.60;99.90
18225;DHT22;9237;48.590;8.854;2023-04-15T02:49:55;0.50;99.90
18225;DHT22;9237;48.590;8.854;2023-04-15T02:52:24;0.50;99.90
18225;DHT22;9237;48.590;8.854;2023-04-15T02:54:51;0.50;99.90
18225;DHT22;9237;48.590;8.854;2023-04-15T02:57:21;0.50;99.90
18225;DHT22;9237;48.590;8.854;2023-04-15T02:59:48;0.40;99.90
18225;DHT22;9237;48.590;8.854;2023-04-15T03:02:15;0.40;99.90
18225;DHT22;9237;48.590;8.854;2023-04-15T03:04:42;0.40;99.90
18225;DHT22;9237;48.590;8.854;2023-04-15T03:07:10;0.40;99.90
18225;DHT22;9237;48.590;8.854;2023-04-15T03:09:37;0.40;99.90
18225;DHT22;9237;48.590;8.854;2023-04-15T03:12:05;0.40;99.90
18225;DHT22;9237;48.590;8.854;2023-04-15T03:14:31;0.40;99.90
18225;DHT22;9237;48.590;8.854;2023-04-15T03:16:58;0.30;99.90
18225;DHT22;9237;48.590;8.854;2023-04-15T03:19:25;0.30;99.90
18225;DHT22;9237;48.590;8.854;2023-04-15T03:21:52;0.20;99.90
18225;DHT22;9237;48.590;8.854;2023-04-15T03:24:20;0.20;99.90
18225;DHT22;9237;48.590;8.854;2023-04-15T03:26:47;0.20;99.90
18225;DHT22;9237;48.590;8.854;2023-04-15T03:29:13;0.10;99.90
18225;DHT22;9237;48.590;8.854;2023-04-15T03:31:40;0.00;99.90
18225;DHT22;9237;48.590;8.854;2023-04-15T03:34:07;-0.10;99.90
18225;DHT22;9237;48.590;8.854;2023-04-15T03:36:34;-0.10;99.90
18225;DHT22;9237;48.590;8.854;2023-04-15T03:39:00;-0.20;99.90
18225;DHT22;9237;48.590;8.854;2023-04-15T03:41:29;-0.30;99.90
18225;DHT22;9237;48.590;8.854;2023-04-15T03:43:57;-0.30;99.90
18225;DHT22;9237;48.590;8.854;2023-04-15T03:46:24;-0.30;99.90
18225;DHT22;9237;48.590;8.854;2023-04-15T03:48:51;0.60;99.90
18225;DHT22;9237;48.590;8.854;2023-04-15T03:51:18;-0.40;99.90
18225;DHT22;9237;48.590;8.854;2023-04-15T03:53:45;-0.40;99.90
18225;DHT22;9237;48.590;8.854;2023-04-15T03:56:11;-0.30;99.90
18225;DHT22;9237;48.590;8.854;2023-04-15T03:58:39;-0.20;99.90
18225;DHT22;9237;48.590;8.854;2023-04-15T04:01:06;-0.30;99.90
18225;DHT22;9237;48.590;8.854;2023-04-15T04:03:33;-0.30;99.90
18225;DHT22;9237;48.590;8.854;2023-04-15T04:06:01;-0.40;99.90
18225;DHT22;9237;48.590;8.854;2023-04-15T04:08:28;-0.50;99.90
18225;DHT22;9237;48.590;8.854;2023-04-15T04:10:55;-0.50;99.90
18225;DHT22;9237;48.590;8.854;2023-04-15T04:13:22;-0.60;99.90
18225;DHT22;9237;48.590;8.854;2023-04-15T04:15:50;0.40;99.90
18225;DHT22;9237;48.590;8.854;2023-04-15T04:18:17;-0.60;99.90
18225;DHT22;9237;48.590;8.854;2023-04-15T04:20:44;-0.70;99.90
18225;DHT22;9237;48.590;8.854;2023-04-15T04:23:10;-0.70;99.90
18225;DHT22;9237;48.590;8.854;2023-04-15T04:25:37;-0.80;99.90
18225;DHT22;9237;48.590;8.854;2023-04-15T04:28:04;-0.70;99.90
18225;DHT22;9237;48.590;8.854;2023-04-15T04:30:31;-0.60;99.90
18225;DHT22;9237;48.590;8.854;2023-04-15T04:32:59;-0.60;99.90
18225;DHT22;9237;48.590;8.854;2023-04-15T04:35:26;-0.40;99.90
18225;DHT22;9237;48.590;8.854;2023-04-15T04:37:53;-0.20;99.90
18225;DHT22;9237;48.590;8.854;2023-04-15T04:40:21;-0.10;99.90
18225;DHT22;9237;48.590;8.854;2023-04-15T04:42:47;-0.20;99.90
18225;DHT22;9237;48.590;8.854;2023-04-15T04:45:14;-0.30;99.90
18225;DHT22;9237;48.590;8.854;2023-04-15T04:47:41;-0.40;99.90
18225;DHT22;9237;48.590;8.854;2023-04-15T04:50:09;-0.60;99.90
18225;DHT22;9237;48.590;8.854;2023-04-15T04:52:36;-0.70;99.90
18225;DHT22;9237;48.590;8.854;2023-04-15T04:55:04;-0.70;99.90
18225;DHT22;9237;48.590;8.854;2023-04-15T04:57:31;-0.60;99.90
18225;DHT22;9237;48.590;8.854;2023-04-15T04:59:57;-0.70;99.90
18225;DHT22;9237;48.590;8.854;2023-04-15T05:02:24;-0.60;99.90
18225;DHT22;9237;48.590;8.854;2023-04-15T05:04:51;-0.60;99.90
18225;DHT22;9237;48.590;8.854;2023-04-15T05:07:21;-0.50;99.90
18225;DHT22;9237;48.590;8.854;2023-04-15T05:09:48;-0.50;99.90
18225;DHT22;9237;48.590;8.854;2023-04-15T05:12:15;-0.50;99.90
18225;DHT22;9237;48.590;8.854;2023-04-15T05:14:43;-0.50;99.90
18225;DHT22;9237;48.590;8.854;2023-04-15T05:17:11;-0.40;99.90
18225;DHT22;9237;48.590;8.854;2023-04-15T05:19:38;-0.30;99.90
18225;DHT22;9237;48.590;8.854;2023-04-15T05:22:05;-0.20;99.90
18225;DHT22;9237;48.590;8.854;2023-04-15T05:24:33;-0.10;99.90
18225;DHT22;9237;48.590;8.854;2023-04-15T05:27:00;0.20;99.90
18225;DHT22;9237;48.590;8.854;2023-04-15T05:29:27;0.50;99.90
18225;DHT22;9237;48.590;8.854;2023-04-15T05:31:54;0.80;99.90
18225;DHT22;9237;48.590;8.854;2023-04-15T05:34:21;0.90;99.90
18225;DHT22;9237;48.590;8.854;2023-04-15T05:36:48;1.00;99.90
18225;DHT22;9237;48.590;8.854;2023-04-15T05:39:15;1.20;99.90
18225;DHT22;9237;48.590;8.854;2023-04-15T05:41:43;1.40;99.90
18225;DHT22;9237;48.590;8.854;2023-04-15T05:44:10;1.60;99.90
18225;DHT22;9237;48.590;8.854;2023-04-15T05:46:36;1.80;99.90
18225;DHT22;9237;48.590;8.854;2023-04-15T05:49:03;2.10;99.90
18225;DHT22;9237;48.590;8.854;2023-04-15T05:51:30;2.30;99.90
18225;DHT22;9237;48.590;8.854;2023-04-15T05:53:57;2.20;99.90
18225;DHT22;9237;48.590;8.854;2023-04-15T05:56:24;2.20;99.90
18225;DHT22;9237;48.590;8.854;2023-04-15T05:58:53;2.90;99.90
18225;DHT22;9237;48.590;8.854;2023-04-15T06:01:19;2.20;99.90
18225;DHT22;9237;48.590;8.854;2023-04-15T06:03:46;2.20;99.90
18225;DHT22;9237;48.590;8.854;2023-04-15T06:06:13;2.20;99.90
18225;DHT22;9237;48.590;8.854;2023-04-15T06:08:40;2.30;99.90
18225;DHT22;9237;48.590;8.854;2023-04-15T06:11:07;2.30;99.90
18225;DHT22;9237;48.590;8.854;2023-04-15T06:13:34;2.30;99.90
18225;DHT22;9237;48.590;8.854;2023-04-15T06:16:02;2.30;99.90
18225;DHT22;9237;48.590;8.854;2023-04-15T06:18:29;2.40;99.90
18225;DHT22;9237;48.590;8.854;2023-04-15T06:20:56;2.40;99.90
18225;DHT22;9237;48.590;8.854;2023-04-15T06:23:23;2.40;99.90
18225;DHT22;9237;48.590;8.854;2023-04-15T06:25:50;2.50;99.90
18225;DHT22;9237;48.590;8.854;2023-04-15T06:28:17;2.60;99.90
18225;DHT22;9237;48.590;8.854;2023-04-15T06:30:43;2.70;99.90
18225;DHT22;9237;48.590;8.854;2023-04-15T06:33:12;2.70;99.90
18225;DHT22;9237;48.590;8.854;2023-04-15T06:35:38;2.80;99.90
18225;DHT22;9237;48.590;8.854;2023-04-15T06:38:05;2.80;99.90
18225;DHT22;9237;48.590;8.854;2023-04-15T06:40:32;2.80;99.90
18225;DHT22;9237;48.590;8.854;2023-04-15T06:42:59;2.90;99.90
18225;DHT22;9237;48.590;8.854;2023-04-15T06:45:26;3.00;99.90
18225;DHT22;9237;48.590;8.854;2023-04-15T06:47:53;2.90;99.90
18225;DHT22;9237;48.590;8.854;2023-04-15T06:50:21;3.20;99.90
18225;DHT22;9237;48.590;8.854;2023-04-15T06:52:47;3.30;99.90
18225;DHT22;9237;48.590;8.854;2023-04-15T06:55:14;3.40;99.90
18225;DHT22;9237;48.590;8.854;2023-04-15T06:57:41;3.50;99.90
18225;DHT22;9237;48.590;8.854;2023-04-15T07:00:09;3.60;99.90
18225;DHT22;9237;48.590;8.854;2023-04-15T07:02:36;3.80;99.90
18225;DHT22;9237;48.590;8.854;2023-04-15T07:05:04;3.80;99.90
18225;DHT22;9237;48.590;8.854;2023-04-15T07:07:33;4.00;99.90
18225;DHT22;9237;48.590;8.854;2023-04-15T07:10:00;4.20;99.90
18225;DHT22;9237;48.590;8.854;2023-04-15T07:12:27;4.70;99.90
18225;DHT22;9237;48.590;8.854;2023-04-15T07:14:54;5.20;99.90
18225;DHT22;9237;48.590;8.854;2023-04-15T07:17:20;5.60;99.90
18225;DHT22;9237;48.590;8.854;2023-04-15T07:19:47;5.90;99.90
18225;DHT22;9237;48.590;8.854;2023-04-15T07:22:14;6.20;99.90
18225;DHT22;9237;48.590;8.854;2023-04-15T07:24:42;6.40;99.90
18225;DHT22;9237;48.590;8.854;2023-04-15T07:27:09;6.60;99.90
18225;DHT22;9237;48.590;8.854;2023-04-15T07:29:39;6.80;99.90
18225;DHT22;9237;48.590;8.854;2023-04-15T07:32:06;6.70;99.90
18225;DHT22;9237;48.590;8.854;2023-04-15T07:34:32;6.80;99.90
18225;DHT22;9237;48.590;8.854;2023-04-15T07:36:59;7.00;99.90
18225;DHT22;9237;48.590;8.854;2023-04-15T07:39:26;7.10;99.90
18225;DHT22;9237;48.590;8.854;2023-04-15T07:41:55;7.30;99.90
18225;DHT22;9237;48.590;8.854;2023-04-15T07:44:21;7.30;99.90
18225;DHT22;9237;48.590;8.854;2023-04-15T07:46:48;7.40;99.90
18225;DHT22;9237;48.590;8.854;2023-04-15T07:49:15;7.40;99.90
18225;DHT22;9237;48.590;8.854;2023-04-15T07:51:43;7.40;99.90
18225;DHT22;9237;48.590;8.854;2023-04-15T07:54:10;7.50;99.90
18225;DHT22;9237;48.590;8.854;2023-04-15T07:56:37;7.70;99.90
18225;DHT22;9237;48.590;8.854;2023-04-15T07:59:05;7.70;99.90
18225;DHT22;9237;48.590;8.854;2023-04-15T08:01:32;8.10;99.90
18225;DHT22;9237;48.590;8.854;2023-04-15T08:03:59;8.60;99.90
18225;DHT22;9237;48.590;8.854;2023-04-15T08:06:26;8.70;99.90
18225;DHT22;9237;48.590;8.854;2023-04-15T08:08:53;9.00;99.90
18225;DHT22;9237;48.590;8.854;2023-04-15T08:11:20;9.30;99.90
18225;DHT22;9237;48.590;8.854;2023-04-15T08:13:47;9.90;99.90
18225;DHT22;9237;48.590;8.854;2023-04-15T08:16:19;10.30;99.90
18225;DHT22;9237;48.590;8.854;2023-04-15T08:18:48;10.50;99.90
18225;DHT22;9237;48.590;8.854;2023-04-15T08:21:15;10.60;99.90
18225;DHT22;9237;48.590;8.854;2023-04-15T08:23:42;10.60;99.90
18225;DHT22;9237;48.590;8.854;2023-04-15T08:26:10;10.60;99.90
18225;DHT22;9237;48.590;8.854;2023-04-15T08:28:38;10.60;99.90
18225;DHT22;9237;48.590;8.854;2023-04-15T08:31:05;10.70;99.90
18225;DHT22;9237;48.590;8.854;2023-04-15T08:33:34;10.80;99.90
18225;DHT22;9237;48.590;8.854;2023-04-15T08:36:01;10.60;99.90
18225;DHT22;9237;48.590;8.854;2023-04-15T08:38:28;10.60;99.90
18225;DHT22;9237;48.590;8.854;2023-04-15T08:40:57;10.40;99.90
18225;DHT22;9237;48.590;8.854;2023-04-15T08:43:27;10.20;99.90
18225;DHT22;9237;48.590;8.854;2023-04-15T08:45:55;10.40;99.90
18225;DHT22;9237;48.590;8.854;2023-04-15T08:48:27;10.60;99.90
18225;DHT22;9237;48.590;8.854;2023-04-15T08:50:55;10.60;99.90
18225;DHT22;9237;48.590;8.854;2023-04-15T08:53:23;10.40;99.90
18225;DHT22;9237;48.590;8.854;2023-04-15T08:55:51;10.60;99.90
18225;DHT22;9237;48.590;8.854;2023-04-15T08:58:19;10.80;99.90
18225;DHT22;9237;48.590;8.854;2023-04-15T09:00:46;11.00;99.90
18225;DHT22;9237;48.590;8.854;2023-04-15T09:03:13;11.10;99.90
18225;DHT22;9237;48.590;8.854;2023-04-15T09:05:40;11.20;99.90
18225;DHT22;9237;48.590;8.854;2023-04-15T09:08:09;11.30;99.90
18225;DHT22;9237;48.590;8.854;2023-04-15T09:10:36;11.40;99.90
18225;DHT22;9237;48.590;8.854;2023-04-15T09:13:03;11.50;99.90
18225;DHT22;9237;48.590;8.854;2023-04-15T09:15:32;11.60;99.90
18225;DHT22;9237;48.590;8.854;2023-04-15T09:17:58;11.70;99.90
18225;DHT22;9237;48.590;8.854;2023-04-15T09:20:25;11.50;99.90
18225;DHT22;9237;48.590;8.854;2023-04-15T09:22:52;11.70;99.90
18225;DHT22;9237;48.590;8.854;2023-04-15T09:25:27;12.00;99.90
18225;DHT22;9237;48.590;8.854;2023-04-15T09:27:55;12.30;99.90
18225;DHT22;9237;48.590;8.854;2023-04-15T09:30:23;12.40;99.90
18225;DHT22;9237;48.590;8.854;2023-04-15T09:32:50;12.80;99.90
18225;DHT22;9237;48.590;8.854;2023-04-15T09:35:18;12.80;99.90
18225;DHT22;9237;48.590;8.854;2023-04-15T09:37:45;13.10;99.90
18225;DHT22;9237;48.590;8.854;2023-04-15T09:40:12;13.40;99.90
18225;DHT22;9237;48.590;8.854;2023-04-15T09:43:02;13.30;99.90
18225;DHT22;9237;48.590;8.854;2023-04-15T09:45:30;13.60;99.90
18225;DHT22;9237;48.590;8.854;2023-04-15T09:47:58;14.00;99.90
18225;DHT22;9237;48.590;8.854;2023-04-15T09:50:26;14.40;99.90
18225;DHT22;9237;48.590;8.854;2023-04-15T09:52:54;14.80;99.90
18225;DHT22;9237;48.590;8.854;2023-04-15T09:55:21;15.40;99.90
18225;DHT22;9237;48.590;8.854;2023-04-15T09:57:48;16.00;99.90
18225;DHT22;9237;48.590;8.854;2023-04-15T10:00:16;16.40;99.50
18225;DHT22;9237;48.590;8.854;2023-04-15T10:02:44;16.60;97.30
18225;DHT22;9237;48.590;8.854;2023-04-15T10:05:14;16.60;94.20
18225;DHT22;9237;48.590;8.854;2023-04-15T10:07:42;16.90;95.50
18225;DHT22;9237;48.590;8.854;2023-04-15T10:10:10;17.70;94.00
18225;DHT22;9237;48.590;8.854;2023-04-15T10:12:39;18.10;92.30
18225;DHT22;9237;48.590;8.854;2023-04-15T10:15:13;18.00;90.80
18225;DHT22;9237;48.590;8.854;2023-04-15T10:17:43;17.30;86.40
18225;DHT22;9237;48.590;8.854;2023-04-15T10:20:11;17.20;89.10
18225;DHT22;9237;48.590;8.854;2023-04-15T10:22:39;17.40;86.60
18225;DHT22;9237;48.590;8.854;2023-04-15T10:25:09;17.30;87.60
18225;DHT22;9237;48.590;8.854;2023-04-15T10:27:36;17.20;86.20
18225;DHT22;9237;48.590;8.854;2023-04-15T10:30:06;16.80;82.70
18225;DHT22;9237;48.590;8.854;2023-04-15T10:32:33;15.50;75.50
18225;DHT22;9237;48.590;8.854;2023-04-15T10:35:02;15.20;80.30
18225;DHT22;9237;48.590;8.854;2023-04-15T10:37:34;15.30;76.80
18225;DHT22;9237;48.590;8.854;2023-04-15T10:40:23;15.30;77.80
18225;DHT22;9237;48.590;8.854;2023-04-15T10:42:50;15.40;76.20
18225;DHT22;9237;48.590;8.854;2023-04-15T10:45:18;15.90;72.80
18225;DHT22;9237;48.590;8.854;2023-04-15T10:47:45;15.70;69.30
18225;DHT22;9237;48.590;8.854;2023-04-15T10:50:13;16.00;69.60
18225;DHT22;9237;48.590;8.854;2023-04-15T10:52:40;16.40;69.30
18225;DHT22;9237;48.590;8.854;2023-04-15T10:55:14;17.00;64.50
18225;DHT22;9237;48.590;8.854;2023-04-15T10:57:42;17.50;63.90
18225;DHT22;9237;48.590;8.854;2023-04-15T11:00:11;17.80;64.60
18225;DHT22;9237;48.590;8.854;2023-04-15T11:02:43;17.50;64.80
18225;DHT22;9237;48.590;8.854;2023-04-15T11:05:12;17.00;65.10
18225;DHT22;9237;48.590;8.854;2023-04-15T11:07:46;16.50;65.30
18225;DHT22;9237;48.590;8.854;2023-04-15T11:13:15;15.70;63.50
18225;DHT22;9237;48.590;8.854;2023-04-15T11:15:43;15.70;66.30
18225;DHT22;9237;48.590;8.854;2023-04-15T11:18:14;15.80;66.40
18225;DHT22;9237;48.590;8.854;2023-04-15T11:20:44;15.90;66.10
18225;DHT22;9237;48.590;8.854;2023-04-15T11:23:12;16.10;68.70
18225;DHT22;9237;48.590;8.854;2023-04-15T11:25:39;16.20;66.40
18225;DHT22;9237;48.590;8.854;2023-04-15T11:28:06;15.70;66.80
18225;DHT22;9237;48.590;8.854;2023-04-15T11:30:33;15.30;68.50
18225;DHT22;9237;48.590;8.854;2023-04-15T11:33:03;14.80;69.90
18225;DHT22;9237;48.590;8.854;2023-04-15T11:35:30;14.50;70.20
18225;DHT22;9237;48.590;8.854;2023-04-15T11:38:02;13.80;72.70
18225;DHT22;9237;48.590;8.854;2023-04-15T11:40:29;13.70;74.80
18225;DHT22;9237;48.590;8.854;2023-04-15T11:43:05;13.60;74.50
18225;DHT22;9237;48.590;8.854;2023-04-15T11:45:32;13.50;73.40
18225;DHT22;9237;48.590;8.854;2023-04-15T11:48:06;13.50;74.00
18225;DHT22;9237;48.590;8.854;2023-04-15T11:50:33;13.40;73.00
18225;DHT22;9237;48.590;8.854;2023-04-15T11:53:04;13.60;74.40
18225;DHT22;9237;48.590;8.854;2023-04-15T11:55:40;13.70;71.90
18225;DHT22;9237;48.590;8.854;2023-04-15T11:58:08;13.90;71.50
18225;DHT22;9237;48.590;8.854;2023-04-15T12:00:36;14.10;73.80
18225;DHT22;9237;48.590;8.854;2023-04-15T12:03:28;14.40;69.70
18225;DHT22;9237;48.590;8.854;2023-04-15T12:06:15;15.20;68.40
18225;DHT22;9237;48.590;8.854;2023-04-15T12:09:02;16.50;65.20
18225;DHT22;9237;48.590;8.854;2023-04-15T12:11:32;17.20;65.50
18225;DHT22;9237;48.590;8.854;2023-04-15T12:14:04;17.40;63.70
18225;DHT22;9237;48.590;8.854;2023-04-15T12:16:32;16.90;66.40
18225;DHT22;9237;48.590;8.854;2023-04-15T12:19:04;17.00;66.90
18225;DHT22;9237;48.590;8.854;2023-04-15T12:21:34;16.70;67.70
18225;DHT22;9237;48.590;8.854;2023-04-15T12:24:04;16.00;68.00
18225;DHT22;9237;48.590;8.854;2023-04-15T12:26:34;15.30;70.10
18225;DHT22;9237;48.590;8.854;2023-04-15T12:29:02;14.80;71.60
18225;DHT22;9237;48.590;8.854;2023-04-15T12:31:29;15.10;71.80
18225;DHT22;9237;48.590;8.854;2023-04-15T12:33:57;15.60;69.50
18225;DHT22;9237;48.590;8.854;2023-04-15T12:36:25;16.20;70.50
18225;DHT22;9237;48.590;8.854;2023-04-15T12:38:52;16.30;66.80
18225;DHT22;9237;48.590;8.854;2023-04-15T12:41:20;16.10;66.70
18225;DHT22;9237;48.590;8.854;2023-04-15T12:43:49;15.60;66.50
18225;DHT22;9237;48.590;8.854;2023-04-15T12:46:16;16.50;61.90
18225;DHT22;9237;48.590;8.854;2023-04-15T12:48:43;17.20;59.70
18225;DHT22;9237;48.590;8.854;2023-04-15T12:51:10;17.60;59.40
18225;DHT22;9237;48.590;8.854;2023-04-15T12:53:37;18.70;60.10
18225;DHT22;9237;48.590;8.854;2023-04-15T12:56:04;18.30;58.20
18225;DHT22;9237;48.590;8.854;2023-04-15T12:58:32;18.00;58.30
18225;DHT22;9237;48.590;8.854;2023-04-15T13:00:59;17.20;60.90
18225;DHT22;9237;48.590;8.854;2023-04-15T13:03:26;16.10;65.20
18225;DHT22;9237;48.590;8.854;2023-04-15T13:05:53;15.40;67.80
18225;DHT22;9237;48.590;8.854;2023-04-15T13:08:20;14.70;67.80
18225;DHT22;9237;48.590;8.854;2023-04-15T13:10:47;14.20;68.80
18225;DHT22;9237;48.590;8.854;2023-04-15T13:13:13;14.10;69.10
18225;DHT22;9237;48.590;8.854;2023-04-15T13:15:42;14.60;67.80
18225;DHT22;9237;48.590;8.854;2023-04-15T13:18:10;15.40;66.80
18225;DHT22;9237;48.590;8.854;2023-04-15T13:20:37;15.30;64.40
18225;DHT22;9237;48.590;8.854;2023-04-15T13:23:04;15.50;68.20
18225;DHT22;9237;48.590;8.854;2023-04-15T13:25:31;15.60;68.90
18225;DHT22;9237;48.590;8.854;2023-04-15T13:27:58;14.80;63.90
18225;DHT22;9237;48.590;8.854;2023-04-15T13:30:26;14.50;63.80
18225;DHT22;9237;48.590;8.854;2023-04-15T13:32:54;14.10;65.60
18225;DHT22;9237;48.590;8.854;2023-04-15T13:35:21;14.40;68.20
18225;DHT22;9237;48.590;8.854;2023-04-15T13:37:48;14.60;69.10
18225;DHT22;9237;48.590;8.854;2023-04-15T13:40:14;14.80;68.70
18225;DHT22;9237;48.590;8.854;2023-04-15T13:42:41;14.80;66.10
18225;DHT22;9237;48.590;8.854;2023-04-15T13:45:09;14.70;64.10
18225;DHT22;9237;48.590;8.854;2023-04-15T13:47:36;14.60;63.70
18225;DHT22;9237;48.590;8.854;2023-04-15T13:50:05;14.30;61.80
18225;DHT22;9237;48.590;8.854;2023-04-15T13:52:32;13.80;64.10
18225;DHT22;9237;48.590;8.854;2023-04-15T13:54:59;13.80;64.10
18225;DHT22;9237;48.590;8.854;2023-04-15T13:57:25;13.60;63.10
18225;DHT22;9237;48.590;8.854;2023-04-15T13:59:52;13.40;65.90
18225;DHT22;9237;48.590;8.854;2023-04-15T14:02:20;13.30;68.00
18225;DHT22;9237;48.590;8.854;2023-04-15T14:04:47;13.30;69.00
18225;DHT22;9237;48.590;8.854;2023-04-15T14:07:16;13.30;70.90
18225;DHT22;9237;48.590;8.854;2023-04-15T14:09:43;13.10;73.50
18225;DHT22;9237;48.590;8.854;2023-04-15T14:12:10;12.70;76.40
18225;DHT22;9237;48.590;8.854;2023-04-15T14:14:36;12.60;76.10
18225;DHT22;9237;48.590;8.854;2023-04-15T14:17:03;13.70;75.90
18225;DHT22;9237;48.590;8.854;2023-04-15T14:19:32;12.70;75.70
18225;DHT22;9237;48.590;8.854;2023-04-15T14:21:59;12.50;75.20
18225;DHT22;9237;48.590;8.854;2023-04-15T14:24:27;12.60;75.80
18225;DHT22;9237;48.590;8.854;2023-04-15T14:26:54;12.90;75.70
18225;DHT22;9237;48.590;8.854;2023-04-15T14:29:22;12.90;74.60
18225;DHT22;9237;48.590;8.854;2023-04-15T14:31:49;13.10;74.40
18225;DHT22;9237;48.590;8.854;2023-04-15T14:34:16;13.00;73.20
18225;DHT22;9237;48.590;8.854;2023-04-15T14:36:43;13.00;74.70
18225;DHT22;9237;48.590;8.854;2023-04-15T14:39:10;13.20;75.30
18225;DHT22;9237;48.590;8.854;2023-04-15T14:41:38;12.90;73.80
18225;DHT22;9237;48.590;8.854;2023-04-15T14:44:05;12.80;74.90
18225;DHT22;9237;48.590;8.854;2023-04-15T14:46:33;12.90;75.20
18225;DHT22;9237;48.590;8.854;2023-04-15T14:49:00;12.70;73.20
18225;DHT22;9237;48.590;8.854;2023-04-15T14:51:27;12.60;73.10
18225;DHT22;9237;48.590;8.854;2023-04-15T14:53:55;12.50;71.80
18225;DHT22;9237;48.590;8.854;2023-04-15T14:56:22;12.40;70.50
18225;DHT22;9237;48.590;8.854;2023-04-15T14:58:50;12.30;70.60
18225;DHT22;9237;48.590;8.854;2023-04-15T15:01:18;12.20;70.80
18225;DHT22;9237;48.590;8.854;2023-04-15T15:03:45;12.20;71.50
18225;DHT22;9237;48.590;8.854;2023-04-15T15:06:12;12.00;70.30
18225;DHT22;9237;48.590;8.854;2023-04-15T15:08:39;12.00;71.40
18225;DHT22;9237;48.590;8.854;2023-04-15T15:11:06;11.90;73.30
18225;DHT22;9237;48.590;8.854;2023-04-15T15:13:33;11.90;73.70
18225;DHT22;9237;48.590;8.854;2023-04-15T15:16:01;11.90;73.10
18225;DHT22;9237;48.590;8.854;2023-04-15T15:18:29;11.90;74.30
18225;DHT22;9237;48.590;8.854;2023-04-15T15:20:55;12.00;73.80
18225;DHT22;9237;48.590;8.854;2023-04-15T15:23:22;12.00;73.70
18225;DHT22;9237;48.590;8.854;2023-04-15T15:25:49;12.00;73.50
18225;DHT22;9237;48.590;8.854;2023-04-15T15:28:16;12.10;73.90
18225;DHT22;9237;48.590;8.854;2023-04-15T15:30:43;12.00;74.60
18225;DHT22;9237;48.590;8.854;2023-04-15T15:33:11;12.10;75.40
18225;DHT22;9237;48.590;8.854;2023-04-15T15:35:38;12.10;76.40
18225;DHT22;9237;48.590;8.854;2023-04-15T15:38:05;12.10;76.60
18225;DHT22;9237;48.590;8.854;2023-04-15T15:40:32;12.10;76.80
18225;DHT22;9237;48.590;8.854;2023-04-15T15:42:59;12.00;76.50
18225;DHT22;9237;48.590;8.854;2023-04-15T15:45:26;12.00;77.70
18225;DHT22;9237;48.590;8.854;2023-04-15T15:47:53;12.00;78.20
18225;DHT22;9237;48.590;8.854;2023-04-15T15:50:22;12.10;77.50
18225;DHT22;9237;48.590;8.854;2023-04-15T15:52:49;12.00;77.80
18225;DHT22;9237;48.590;8.854;2023-04-15T15:55:16;12.00;78.20
18225;DHT22;9237;48.590;8.854;2023-04-15T15:57:43;12.10;77.90
18225;DHT22;9237;48.590;8.854;2023-04-15T16:00:11;12.00;77.80